Saldanha, South Africa
Current Conditions -  °F | °C
As of 7:00 AM on Wednesday 22 Oct 2014 (Local Time) from FACT Reporting Station
Light Fog Light Fog  
Wind Chill: 55°   Ceiling: 200
Heat Index: 55°   Visibility: 0.93mi
Dew Point: 54°   Wind: 7mph
Humidity: 94%   Direction: 340°NNW
Pressure: 30"   Gusts: NA
Location:  33.01°S, 17.93°E
Report Text: FACT 220500Z 34006KT 1500 BCFG OVC002 13/12 Q1016 BECMG 3000 BR
Loading
Personal Weather Stations






























Interactive Weather Map
Tropical Storm Tracking
New forecast layout! Learn more

10-Day Weather Forecast

Advertisements
Track Severe Weather on mobile